Terminal Aerodrome Forecast
Issued by NWS

Home | Current Version | Previous Version | Text Only | Print | Product List | Glossary Off
Versions: 1 2 3 4 5 6 7 8 9 10 11 12 13 14 15 16 17

000
FTUS43 KBIS 231720
TAFJMS
TAF
KJMS 231720Z 2318/2418 32018G25KT P6SM BKN035 OVC050
     FM240100 32014KT P6SM FEW035 FEW150
     FM240500 30009KT P6SM FEW030 FEW200
     FM241600 32016G25KT P6SM BKN025 BKN035=

USA.gov is the U.S. government's official web portal to all federal, state and local government web resources and services.